createdAt,value
2023-02-06T04:44:23.244Z,10.80
2023-02-06T04:59:27.989Z,10.80
2023-02-06T05:14:32.473Z,10.60
2023-02-06T05:29:36.962Z,10.80
2023-02-06T05:44:41.469Z,10.50
2023-02-06T05:59:45.953Z,10.30
2023-02-06T06:14:50.498Z,10.30
2023-02-06T06:29:54.973Z,10.70
2023-02-06T06:44:59.753Z,10.60
2023-02-06T07:00:05.830Z,10.40
2023-02-06T07:15:11.390Z,10.50
2023-02-06T07:30:16.610Z,10.40
2023-02-06T07:45:21.048Z,10.30
2023-02-06T08:00:25.891Z,10.50
2023-02-06T08:15:30.439Z,10.40
2023-02-06T08:30:36.976Z,10.30
2023-02-06T08:45:41.674Z,10.60
2023-02-06T09:00:46.197Z,10.60
2023-02-06T09:15:54.248Z,10.80
2023-02-06T09:30:58.884Z,11.00
2023-02-06T09:46:06.081Z,11.40
2023-02-06T10:01:18.931Z,11.30
2023-02-06T10:16:37.573Z,11.80
2023-02-06T10:32:01.036Z,12.10
2023-02-06T10:47:16.951Z,12.40
2023-02-06T11:02:25.249Z,11.70
2023-02-06T11:17:31.577Z,12.10
2023-02-06T11:32:40.984Z,12.50
2023-02-06T11:47:45.435Z,12.60
2023-02-06T12:02:56.434Z,12.90
2023-02-06T12:18:06.016Z,13.90
2023-02-06T12:33:16.941Z,13.40
2023-02-06T12:48:26.323Z,13.70
2023-02-06T13:03:34.016Z,13.40
2023-02-06T13:19:02.685Z,13.50
2023-02-06T13:34:17.172Z,13.50
2023-02-06T13:49:48.939Z,13.90
2023-02-06T14:04:53.580Z,13.90
2023-02-06T14:20:09.083Z,13.10
2023-02-06T14:35:31.423Z,13.70
2023-02-06T14:50:40.490Z,14.00
2023-02-06T15:05:45.454Z,14.30
2023-02-06T15:20:54.960Z,14.80
2023-02-06T15:36:01.948Z,13.90
2023-02-06T15:51:20.321Z,13.90
2023-02-06T16:06:24.963Z,14.00
2023-02-06T16:21:31.750Z,13.80
2023-02-06T16:36:36.167Z,13.50
2023-02-06T16:51:43.059Z,13.70
2023-02-06T17:06:47.802Z,13.80
2023-02-06T17:21:53.177Z,13.60
2023-02-06T17:36:58.078Z,13.40
2023-02-06T17:52:02.626Z,13.40
2023-02-06T18:07:07.926Z,13.30
2023-02-06T18:22:15.846Z,12.80
2023-02-06T18:37:20.521Z,12.90
2023-02-06T18:52:25.101Z,12.90
2023-02-06T19:07:30.235Z,12.90
2023-02-06T19:22:36.290Z,12.80
2023-02-06T19:37:41.414Z,12.60
2023-02-06T19:52:46.116Z,12.30
2023-02-06T20:07:50.558Z,12.50
2023-02-06T20:22:55.056Z,12.00
2023-02-06T20:38:00.209Z,12.10
2023-02-06T20:53:04.674Z,12.10
2023-02-06T21:08:09.559Z,11.90
